createdAt,value
2018-06-19T00:00:17.530Z,20.79
2018-06-19T00:01:17.533Z,20.87
2018-06-19T00:02:17.535Z,20.85
2018-06-19T00:03:17.537Z,20.88
2018-06-19T00:04:17.541Z,20.95
2018-06-19T00:05:17.543Z,20.77
2018-06-19T00:06:17.547Z,20.80
2018-06-19T00:07:17.548Z,20.84
2018-06-19T00:08:17.550Z,20.89
2018-06-19T00:09:17.553Z,20.95
2018-06-19T00:10:17.556Z,20.94
2018-06-19T00:11:17.560Z,20.91
2018-06-19T00:12:17.567Z,20.94
2018-06-19T00:13:17.573Z,20.95
2018-06-19T00:14:17.565Z,20.88
2018-06-19T00:15:17.569Z,20.97
2018-06-19T00:16:17.569Z,21.01
2018-06-19T00:17:17.575Z,21.06
2018-06-19T00:18:17.574Z,20.99
2018-06-19T00:19:17.580Z,20.91
2018-06-19T00:20:17.578Z,20.95
2018-06-19T00:21:17.580Z,20.92
2018-06-19T00:22:17.583Z,20.94
2018-06-19T00:23:17.587Z,20.95
2018-06-19T00:24:17.591Z,20.94
2018-06-19T00:25:17.592Z,20.87
2018-06-19T00:26:17.595Z,20.89
2018-06-19T00:27:17.600Z,20.85
2018-06-19T00:28:17.599Z,20.77
2018-06-19T00:29:17.605Z,20.76
2018-06-19T00:30:17.605Z,20.72
2018-06-19T00:31:17.605Z,20.67
2018-06-19T00:32:17.608Z,20.74
2018-06-19T00:33:17.620Z,20.66
2018-06-19T00:34:17.615Z,20.64
2018-06-19T00:35:17.622Z,20.64
2018-06-19T00:36:17.628Z,20.66
2018-06-19T00:37:17.623Z,20.67
2018-06-19T00:38:17.624Z,20.62
2018-06-19T00:39:17.629Z,20.62
2018-06-19T00:40:17.632Z,20.66
2018-06-19T00:41:17.633Z,20.66
2018-06-19T00:42:17.636Z,20.66
2018-06-19T00:43:17.638Z,20.70
2018-06-19T00:44:17.638Z,20.57
2018-06-19T00:45:17.640Z,20.55
2018-06-19T00:46:17.651Z,20.58
2018-06-19T00:47:17.648Z,20.52
2018-06-19T00:48:17.651Z,20.50
2018-06-19T00:49:17.654Z,20.57
2018-06-19T00:50:17.655Z,20.55
2018-06-19T00:51:17.657Z,20.51
2018-06-19T00:52:17.659Z,20.54
2018-06-19T00:53:17.668Z,20.50
2018-06-19T00:54:17.666Z,20.59
2018-06-19T00:55:17.665Z,20.55
2018-06-19T00:56:17.669Z,20.54
2018-06-19T00:57:17.672Z,20.57
2018-06-19T00:58:17.674Z,20.64
2018-06-19T00:59:17.676Z,20.55
2018-06-19T01:00:17.689Z,20.54
2018-06-19T01:01:17.681Z,20.48
2018-06-19T01:02:17.684Z,20.55
2018-06-19T01:03:17.687Z,20.48
2018-06-19T01:04:17.687Z,20.58
2018-06-19T01:05:17.692Z,20.57
2018-06-19T01:06:17.694Z,20.54
2018-06-19T01:07:17.696Z,20.57
2018-06-19T01:08:17.702Z,20.54
2018-06-19T01:09:17.700Z,20.52
2018-06-19T01:10:17.701Z,20.42
2018-06-19T01:11:17.705Z,20.48
2018-06-19T01:12:17.709Z,20.52
2018-06-19T01:13:17.709Z,20.51
2018-06-19T01:14:17.713Z,20.54
2018-06-19T01:15:17.716Z,20.50
2018-06-19T01:16:17.717Z,20.54
2018-06-19T01:17:17.725Z,20.59
2018-06-19T01:18:17.725Z,20.61
2018-06-19T01:19:17.726Z,20.57
2018-06-19T01:20:17.731Z,20.57
2018-06-19T01:21:17.731Z,20.55
2018-06-19T01:22:17.738Z,20.59
2018-06-19T01:23:17.736Z,20.51
2018-06-19T01:24:17.738Z,20.50
2018-06-19T01:25:17.740Z,20.51
2018-06-19T01:26:17.744Z,20.51
2018-06-19T01:27:17.745Z,20.50
2018-06-19T01:28:17.747Z,20.36
2018-06-19T01:29:17.752Z,20.42
2018-06-19T01:30:17.753Z,20.36
2018-06-19T01:31:17.757Z,20.41
2018-06-19T01:32:17.765Z,20.28
2018-06-19T01:33:17.759Z,20.29
2018-06-19T01:34:17.761Z,20.29
2018-06-19T01:35:17.765Z,20.31
2018-06-19T01:36:17.767Z,20.29
2018-06-19T01:37:17.770Z,20.29
2018-06-19T01:38:17.867Z,20.31
2018-06-19T01:39:17.775Z,20.28
2018-06-19T01:40:17.775Z,20.23
2018-06-19T01:41:17.780Z,20.20
2018-06-19T01:42:17.782Z,20.08
2018-06-19T01:43:17.783Z,20.06
2018-06-19T01:44:17.785Z,19.99
2018-06-19T01:45:17.787Z,19.98
2018-06-19T01:46:17.793Z,19.96
2018-06-19T01:47:17.796Z,19.92
2018-06-19T01:48:17.797Z,19.86
2018-06-19T01:49:17.796Z,19.81
2018-06-19T01:50:17.797Z,19.74
2018-06-19T01:51:17.802Z,19.78
2018-06-19T01:52:17.803Z,19.80
2018-06-19T01:53:17.804Z,19.71
2018-06-19T01:54:17.811Z,19.74
2018-06-19T01:55:17.809Z,19.77
2018-06-19T01:56:17.810Z,19.68
2018-06-19T01:57:17.812Z,19.73
2018-06-19T01:58:17.823Z,19.74
2018-06-19T01:59:17.821Z,19.62
2018-06-19T02:00:17.827Z,19.51
2018-06-19T02:01:17.827Z,19.56
2018-06-19T02:02:17.826Z,19.51
2018-06-19T02:03:17.829Z,19.40
2018-06-19T02:04:17.833Z,19.37
2018-06-19T02:05:17.831Z,19.43
2018-06-19T02:06:17.833Z,19.37
2018-06-19T02:07:17.837Z,19.31
2018-06-19T02:08:17.838Z,19.31
2018-06-19T02:09:17.842Z,19.29
2018-06-19T02:10:17.841Z,19.26
2018-06-19T02:11:17.844Z,19.32
2018-06-19T02:12:17.845Z,19.22
2018-06-19T02:13:17.850Z,19.21
2018-06-19T02:14:17.849Z,19.25
2018-06-19T02:15:17.852Z,19.16
2018-06-19T02:16:17.855Z,19.21
2018-06-19T02:17:17.857Z,19.19
2018-06-19T02:18:17.853Z,19.18
2018-06-19T02:19:17.862Z,19.07
2018-06-19T02:20:17.864Z,19.16
2018-06-19T02:21:17.864Z,19.11
2018-06-19T02:22:17.866Z,19.10
2018-06-19T02:23:17.868Z,19.11
2018-06-19T02:24:17.869Z,19.10
2018-06-19T02:25:17.874Z,18.99
2018-06-19T02:26:17.874Z,19.02
2018-06-19T02:27:17.874Z,19.00
2018-06-19T02:28:17.877Z,19.06
2018-06-19T02:29:17.877Z,19.14
2018-06-19T02:30:17.881Z,19.25
2018-06-19T02:31:17.888Z,19.19
2018-06-19T02:32:17.886Z,19.25
2018-06-19T02:33:17.886Z,19.22
2018-06-19T02:34:17.894Z,19.28
2018-06-19T02:35:17.894Z,19.28
2018-06-19T02:36:17.895Z,19.32
2018-06-19T02:37:17.896Z,19.36
2018-06-19T02:38:17.902Z,19.44
2018-06-19T02:39:17.895Z,19.37
2018-06-19T02:40:17.897Z,19.43
2018-06-19T02:41:17.908Z,19.37
2018-06-19T02:42:17.904Z,19.43
2018-06-19T02:43:17.906Z,19.51
2018-06-19T02:44:17.914Z,19.50
2018-06-19T02:45:17.910Z,19.61
2018-06-19T02:46:17.911Z,19.58
2018-06-19T02:47:17.914Z,19.54
2018-06-19T02:48:17.917Z,19.66
2018-06-19T02:49:17.921Z,19.66
2018-06-19T02:50:17.921Z,19.62
2018-06-19T02:51:17.925Z,19.58
2018-06-19T02:52:17.925Z,19.48
2018-06-19T02:53:17.925Z,19.54
2018-06-19T02:54:17.927Z,19.55
2018-06-19T02:55:17.929Z,19.50
2018-06-19T02:56:17.931Z,19.48
2018-06-19T02:57:17.932Z,19.48
2018-06-19T02:58:17.935Z,19.47
2018-06-19T02:59:17.937Z,19.61
2018-06-19T03:00:18.095Z,19.56
2018-06-19T03:01:17.940Z,19.62
2018-06-19T03:02:17.940Z,19.61
2018-06-19T03:03:17.945Z,19.65
2018-06-19T03:04:17.943Z,19.63
2018-06-19T03:05:17.950Z,19.68
2018-06-19T03:06:17.953Z,19.65
2018-06-19T03:07:17.952Z,19.68
2018-06-19T03:08:17.955Z,19.69
2018-06-19T03:09:17.956Z,19.71
2018-06-19T03:10:17.958Z,19.74
2018-06-19T03:11:17.961Z,19.78
2018-06-19T03:12:17.961Z,19.77
2018-06-19T03:13:17.967Z,19.80
2018-06-19T03:14:17.970Z,19.86
2018-06-19T03:15:17.968Z,19.91
2018-06-19T03:16:17.974Z,20.05
2018-06-19T03:17:17.972Z,20.02
2018-06-19T03:18:17.975Z,20.02
2018-06-19T03:19:17.978Z,20.06
2018-06-19T03:20:17.984Z,19.95
2018-06-19T03:21:17.979Z,19.98
2018-06-19T03:22:17.981Z,19.78
2018-06-19T03:23:17.983Z,19.68
2018-06-19T03:24:17.985Z,19.66
2018-06-19T03:25:17.998Z,19.50
2018-06-19T03:26:17.990Z,19.32
2018-06-19T03:27:17.992Z,19.13
2018-06-19T03:28:17.991Z,19.08
2018-06-19T03:29:17.996Z,18.92
2018-06-19T03:30:18.046Z,18.92
2018-06-19T03:31:18.001Z,18.99
2018-06-19T03:32:18.003Z,18.91
2018-06-19T03:33:18.004Z,18.87
2018-06-19T03:34:18.011Z,18.72
2018-06-19T03:35:18.011Z,18.73
2018-06-19T03:36:18.009Z,18.75
2018-06-19T03:37:18.025Z,18.76
2018-06-19T03:38:18.012Z,18.76
2018-06-19T03:39:18.014Z,18.67
2018-06-19T03:40:18.017Z,18.66
2018-06-19T03:41:18.016Z,18.54
2018-06-19T03:42:18.023Z,18.58
2018-06-19T03:43:18.020Z,18.50
2018-06-19T03:44:18.020Z,18.62
2018-06-19T03:45:18.024Z,18.69
2018-06-19T03:46:18.025Z,18.60
2018-06-19T03:47:18.026Z,18.62
2018-06-19T03:48:18.028Z,18.57
2018-06-19T03:49:18.031Z,18.58
2018-06-19T03:50:18.029Z,18.60
2018-06-19T03:51:18.033Z,18.50
2018-06-19T03:52:18.032Z,18.50
2018-06-19T03:53:18.037Z,18.62
2018-06-19T03:54:18.039Z,18.62
2018-06-19T03:55:18.041Z,18.63
2018-06-19T03:56:18.039Z,18.51
2018-06-19T03:57:18.039Z,18.54
2018-06-19T03:58:18.044Z,18.52
2018-06-19T03:59:18.044Z,18.45
2018-06-19T04:00:18.045Z,18.44
2018-06-19T04:01:18.106Z,18.48
2018-06-19T04:02:18.045Z,18.58
2018-06-19T04:03:18.050Z,18.58
2018-06-19T04:04:18.050Z,18.65
2018-06-19T04:05:18.052Z,18.73
2018-06-19T04:06:18.052Z,18.66
2018-06-19T04:07:18.058Z,18.62
2018-06-19T04:08:18.060Z,18.66
2018-06-19T04:09:18.061Z,18.58
2018-06-19T04:10:18.061Z,18.60
2018-06-19T04:11:18.062Z,18.65
2018-06-19T04:12:18.065Z,18.80
2018-06-19T04:13:18.063Z,18.80
2018-06-19T04:14:18.067Z,18.73
2018-06-19T04:15:18.073Z,18.73
2018-06-19T04:16:18.089Z,18.81
2018-06-19T04:17:18.159Z,18.75
2018-06-19T04:18:18.073Z,18.69
2018-06-19T04:19:18.076Z,18.76
2018-06-19T04:20:18.076Z,18.76
2018-06-19T04:21:18.073Z,18.80
2018-06-19T04:22:18.078Z,18.92
2018-06-19T04:23:18.079Z,18.90
2018-06-19T04:24:18.082Z,18.87
2018-06-19T04:25:18.084Z,18.91
2018-06-19T04:26:18.089Z,18.94
2018-06-19T04:27:18.090Z,18.90
2018-06-19T04:28:18.089Z,18.88
2018-06-19T04:29:18.101Z,18.94
2018-06-19T04:30:18.094Z,18.92
2018-06-19T04:31:18.100Z,18.85
2018-06-19T04:32:18.104Z,18.98
2018-06-19T04:33:18.136Z,18.90
2018-06-19T04:34:18.102Z,18.92
2018-06-19T04:35:18.105Z,19.04
2018-06-19T04:36:18.104Z,19.02
2018-06-19T04:37:18.107Z,19.07
2018-06-19T04:38:18.109Z,18.88
2018-06-19T04:39:18.111Z,19.00
2018-06-19T04:40:18.113Z,19.00
2018-06-19T04:41:18.116Z,18.91
2018-06-19T04:42:18.117Z,19.14
2018-06-19T04:43:18.117Z,19.22
2018-06-19T04:44:18.118Z,19.11
2018-06-19T04:45:18.120Z,19.26
2018-06-19T04:46:18.123Z,19.28
2018-06-19T04:47:18.126Z,19.28
2018-06-19T04:48:18.126Z,19.28
2018-06-19T04:49:18.130Z,19.39
2018-06-19T04:50:18.131Z,19.47
2018-06-19T04:51:18.134Z,19.46
2018-06-19T04:52:18.134Z,19.55
2018-06-19T04:53:18.136Z,19.39
2018-06-19T04:54:18.141Z,19.47
2018-06-19T04:55:18.141Z,19.46
2018-06-19T04:56:18.142Z,19.39
2018-06-19T04:57:18.145Z,19.41
2018-06-19T04:58:18.149Z,19.44
2018-06-19T04:59:18.149Z,19.51
2018-06-19T05:00:18.150Z,19.50
2018-06-19T05:01:18.152Z,19.62
2018-06-19T05:02:18.154Z,19.39
2018-06-19T05:03:18.157Z,19.51
2018-06-19T05:04:18.155Z,19.54
2018-06-19T05:05:18.157Z,19.51
2018-06-19T05:06:18.162Z,19.58
2018-06-19T05:07:18.165Z,19.61
2018-06-19T05:08:18.173Z,19.76
2018-06-19T05:09:18.170Z,19.68
2018-06-19T05:10:18.171Z,19.69
2018-06-19T05:11:18.171Z,19.66
2018-06-19T05:12:18.178Z,19.74
2018-06-19T05:13:18.178Z,19.66
2018-06-19T05:14:18.179Z,19.61
2018-06-19T05:15:18.190Z,19.78
2018-06-19T05:16:18.184Z,19.83
2018-06-19T05:17:18.185Z,19.98
2018-06-19T05:18:18.191Z,19.91
2018-06-19T05:19:18.197Z,20.05
2018-06-19T05:20:18.224Z,20.02
2018-06-19T05:21:18.194Z,20.05
2018-06-19T05:22:18.197Z,20.06
2018-06-19T05:23:18.202Z,19.91
2018-06-19T05:24:18.204Z,19.99
2018-06-19T05:25:18.203Z,20.16
2018-06-19T05:26:18.207Z,20.16
2018-06-19T05:27:18.205Z,20.16
2018-06-19T05:28:18.209Z,20.28
2018-06-19T05:29:18.214Z,20.35
2018-06-19T05:30:18.236Z,20.39
2018-06-19T05:31:18.218Z,20.55
2018-06-19T05:32:18.219Z,20.67
2018-06-19T05:33:18.224Z,20.88
2018-06-19T05:34:18.223Z,20.77
2018-06-19T05:35:18.230Z,20.77
2018-06-19T05:36:18.224Z,20.91
2018-06-19T05:37:18.230Z,21.04
2018-06-19T05:38:18.231Z,21.34
2018-06-19T05:39:18.241Z,21.59
2018-06-19T05:40:18.237Z,21.58
2018-06-19T05:41:18.240Z,21.98
2018-06-19T05:42:18.242Z,22.33
2018-06-19T05:43:18.246Z,23.23
2018-06-19T05:44:18.247Z,24.40
2018-06-19T05:45:18.249Z,24.53
2018-06-19T05:46:18.290Z,24.80
2018-06-19T05:47:18.260Z,25.10
2018-06-19T05:48:18.257Z,25.62
2018-06-19T05:49:18.261Z,25.60
2018-06-19T05:50:18.264Z,25.69
2018-06-19T05:51:18.266Z,26.10
2018-06-19T05:52:18.267Z,26.36
2018-06-19T05:53:18.271Z,25.17
2018-06-19T05:54:18.275Z,24.37
2018-06-19T05:55:18.278Z,23.83
2018-06-19T05:56:18.284Z,24.00
2018-06-19T05:57:18.283Z,23.53
2018-06-19T05:58:18.289Z,23.20
2018-06-19T05:59:18.293Z,23.05
2018-06-19T06:00:18.296Z,22.35
2018-06-19T06:01:18.297Z,21.88
2018-06-19T06:02:18.301Z,21.35
2018-06-19T06:03:18.308Z,21.22
2018-06-19T06:04:18.307Z,21.49
2018-06-19T06:05:18.314Z,21.65
2018-06-19T06:06:18.313Z,21.69
2018-06-19T06:07:18.321Z,22.82
2018-06-19T06:08:18.321Z,22.58
2018-06-19T06:09:18.322Z,22.94
2018-06-19T06:10:18.328Z,23.79
2018-06-19T06:11:18.370Z,23.95
2018-06-19T06:12:18.335Z,24.81
2018-06-19T06:13:18.337Z,25.00
2018-06-19T06:14:18.345Z,26.20
2018-06-19T06:15:18.345Z,26.76
2018-06-19T06:16:18.344Z,26.15
2018-06-19T06:17:18.349Z,26.97
2018-06-19T06:18:18.350Z,27.66
2018-06-19T06:19:18.354Z,27.50
2018-06-19T06:20:18.357Z,28.25
2018-06-19T06:21:18.360Z,28.33
2018-06-19T06:22:18.365Z,27.67
2018-06-19T06:23:18.369Z,27.46
2018-06-19T06:24:18.374Z,27.88
2018-06-19T06:25:18.379Z,28.44
2018-06-19T06:26:18.383Z,28.48
2018-06-19T06:27:18.384Z,28.68
2018-06-19T06:28:18.391Z,29.15
2018-06-19T06:29:18.393Z,29.86
2018-06-19T06:30:18.408Z,29.71
2018-06-19T06:31:18.453Z,30.07
2018-06-19T06:32:18.411Z,29.43
2018-06-19T06:33:18.410Z,29.92
2018-06-19T06:34:18.419Z,29.55
2018-06-19T06:35:18.422Z,28.44
2018-06-19T06:36:18.426Z,28.44
2018-06-19T06:37:18.436Z,28.36
2018-06-19T06:38:18.435Z,27.90
2018-06-19T06:39:18.442Z,27.66
2018-06-19T06:40:18.446Z,27.66
2018-06-19T06:41:18.451Z,27.67
2018-06-19T06:42:18.456Z,28.39
2018-06-19T06:43:18.462Z,28.62
2018-06-19T06:44:18.465Z,28.80
2018-06-19T06:45:18.471Z,28.92
2018-06-19T06:46:18.477Z,29.48
2018-06-19T06:47:18.484Z,29.61
2018-06-19T06:48:18.494Z,29.82
2018-06-19T06:49:18.495Z,29.67
2018-06-19T06:50:18.602Z,30.26
2018-06-19T06:51:18.505Z,30.55
2018-06-19T06:52:18.515Z,31.14
2018-06-19T06:53:18.517Z,30.84
2018-06-19T06:54:18.522Z,30.54
2018-06-19T06:55:18.529Z,28.44
2018-06-19T06:56:18.536Z,27.41
2018-06-19T06:57:18.541Z,27.50
2018-06-19T06:58:18.548Z,26.94
2018-06-19T06:59:18.555Z,26.54
2018-06-19T07:00:18.561Z,26.17
2018-06-19T07:01:18.683Z,26.85
2018-06-19T07:02:18.575Z,27.28
2018-06-19T07:03:18.587Z,28.31
2018-06-19T07:04:18.585Z,28.24
2018-06-19T07:05:18.592Z,28.19
2018-06-19T07:06:18.594Z,29.21
2018-06-19T07:07:18.604Z,29.18
2018-06-19T07:08:18.606Z,28.62
2018-06-19T07:09:18.613Z,29.80
2018-06-19T07:10:18.695Z,30.13
2018-06-19T07:11:18.630Z,30.39
2018-06-19T07:12:18.636Z,30.88
2018-06-19T07:13:18.640Z,30.83
2018-06-19T07:14:18.647Z,30.95
2018-06-19T07:15:18.653Z,30.04
2018-06-19T07:16:18.665Z,30.02
2018-06-19T07:17:18.666Z,30.11
2018-06-19T07:18:18.672Z,30.55
2018-06-19T07:19:18.714Z,30.72
2018-06-19T07:20:18.684Z,31.17
2018-06-19T07:21:18.692Z,31.50
2018-06-19T07:22:18.698Z,31.93
2018-06-19T07:23:18.708Z,32.28
2018-06-19T07:24:18.711Z,31.92
2018-06-19T07:25:18.721Z,29.74
2018-06-19T07:26:18.730Z,29.26
2018-06-19T07:27:18.736Z,29.52
2018-06-19T07:28:18.739Z,30.32
2018-06-19T07:29:18.751Z,31.13
2018-06-19T07:30:18.758Z,31.13
2018-06-19T07:31:18.765Z,31.50
2018-06-19T07:32:18.772Z,30.89
2018-06-19T07:33:18.780Z,30.31
2018-06-19T07:34:18.787Z,29.73
2018-06-19T07:35:18.796Z,29.11
2018-06-19T07:36:18.801Z,29.42
2018-06-19T07:37:18.809Z,29.16
2018-06-19T07:38:18.868Z,29.14
2018-06-19T07:39:18.830Z,28.29
2018-06-19T07:40:18.840Z,27.39
2018-06-19T07:41:18.840Z,28.24
2018-06-19T07:42:18.849Z,28.93
2018-06-19T07:43:18.854Z,29.67
2018-06-19T07:44:18.866Z,30.29
2018-06-19T07:45:18.869Z,30.24
2018-06-19T07:46:18.877Z,30.62
2018-06-19T07:47:18.882Z,30.10
2018-06-19T07:48:18.892Z,30.27
2018-06-19T07:49:18.904Z,30.82
2018-06-19T07:50:18.904Z,31.25
2018-06-19T07:51:18.914Z,30.51
2018-06-19T07:52:18.923Z,29.43
2018-06-19T07:53:18.929Z,30.05
2018-06-19T07:54:18.938Z,31.19
2018-06-19T07:55:18.948Z,31.26
2018-06-19T07:56:19.001Z,31.38
2018-06-19T07:57:18.971Z,31.63
2018-06-19T07:58:18.987Z,32.10
2018-06-19T07:59:18.978Z,30.22
2018-06-19T08:00:18.987Z,28.43
2018-06-19T08:01:18.995Z,28.70
2018-06-19T08:02:19.002Z,28.74
2018-06-19T08:03:19.009Z,29.23
2018-06-19T08:04:19.016Z,29.30
2018-06-19T08:05:19.024Z,30.04
2018-06-19T08:06:19.032Z,30.24
2018-06-19T08:07:19.041Z,30.77
2018-06-19T08:08:19.048Z,31.04
2018-06-19T08:09:19.056Z,30.91
2018-06-19T08:10:19.069Z,31.09
2018-06-19T08:11:19.076Z,30.64
2018-06-19T08:12:19.082Z,30.31
2018-06-19T08:13:19.091Z,31.12
2018-06-19T08:14:19.097Z,30.98
2018-06-19T08:15:19.107Z,30.53
2018-06-19T08:16:19.115Z,30.35
2018-06-19T08:17:19.124Z,30.01
2018-06-19T08:18:19.133Z,29.90
2018-06-19T08:19:19.143Z,30.19
2018-06-19T08:20:19.148Z,30.49
2018-06-19T08:21:19.166Z,31.06
2018-06-19T08:22:19.167Z,30.84
2018-06-19T08:23:19.176Z,31.41
2018-06-19T08:24:19.185Z,31.51
2018-06-19T08:25:19.193Z,31.57
2018-06-19T08:26:19.214Z,31.85
2018-06-19T08:27:19.228Z,32.35
2018-06-19T08:28:19.219Z,31.88
2018-06-19T08:29:19.224Z,32.29
2018-06-19T08:30:19.239Z,32.47
2018-06-19T08:31:19.249Z,31.92
2018-06-19T08:32:19.256Z,32.07
2018-06-19T08:33:19.270Z,31.80
2018-06-19T08:34:19.277Z,31.65
2018-06-19T08:35:19.287Z,31.58
2018-06-19T08:36:19.337Z,32.19
2018-06-19T08:37:19.304Z,32.01
2018-06-19T08:38:19.314Z,32.06
2018-06-19T08:39:19.325Z,32.37
2018-06-19T08:40:19.334Z,32.59
2018-06-19T08:41:19.344Z,31.95
2018-06-19T08:42:19.356Z,30.99
2018-06-19T08:43:19.365Z,31.04
2018-06-19T08:44:19.374Z,31.51
2018-06-19T08:45:19.384Z,31.95
2018-06-19T08:46:19.397Z,32.13
2018-06-19T08:47:19.404Z,31.99
2018-06-19T08:48:19.416Z,31.73
2018-06-19T08:49:19.424Z,31.72
2018-06-19T08:50:19.440Z,30.31
2018-06-19T08:51:19.449Z,30.00
2018-06-19T08:52:19.455Z,30.49
2018-06-19T08:53:19.467Z,31.09
2018-06-19T08:54:19.541Z,30.70
2018-06-19T08:55:19.545Z,30.58
2018-06-19T08:56:19.499Z,30.43
2018-06-19T08:57:19.506Z,30.84
2018-06-19T08:58:19.515Z,31.17
2018-06-19T08:59:19.524Z,31.93
2018-06-19T09:00:19.550Z,32.57
2018-06-19T09:01:19.544Z,32.21
2018-06-19T09:02:19.552Z,32.10
2018-06-19T09:03:19.561Z,32.10
2018-06-19T09:04:19.572Z,32.65
2018-06-19T09:05:19.582Z,32.48
2018-06-19T09:06:19.591Z,32.74
2018-06-19T09:07:19.605Z,31.17
2018-06-19T09:08:19.611Z,30.05
2018-06-19T09:09:19.617Z,30.19
2018-06-19T09:10:19.625Z,29.90
2018-06-19T09:11:19.637Z,29.19
2018-06-19T09:12:19.644Z,29.43
2018-06-19T09:13:19.717Z,29.67
2018-06-19T09:14:19.663Z,28.89
2018-06-19T09:15:19.670Z,29.04
2018-06-19T09:16:19.678Z,28.81
2018-06-19T09:17:19.686Z,28.64
2018-06-19T09:18:19.696Z,28.48
2018-06-19T09:19:19.711Z,28.73
2018-06-19T09:20:19.730Z,29.06
2018-06-19T09:21:19.724Z,29.19
2018-06-19T09:22:19.728Z,28.95
2018-06-19T09:23:19.737Z,28.89
2018-06-19T09:24:19.784Z,28.73
2018-06-19T09:25:19.751Z,28.92
2018-06-19T09:26:19.760Z,28.71
2018-06-19T09:27:19.768Z,28.66
2018-06-19T09:28:19.772Z,28.88
2018-06-19T09:29:19.781Z,29.23
2018-06-19T09:30:19.789Z,28.90
2018-06-19T09:31:19.815Z,29.28
2018-06-19T09:32:19.807Z,29.26
2018-06-19T09:33:19.813Z,28.92
2018-06-19T09:34:19.823Z,28.81
2018-06-19T09:35:19.831Z,28.18
2018-06-19T09:36:19.851Z,27.92
2018-06-19T09:37:19.843Z,27.93
2018-06-19T09:38:19.850Z,27.97
2018-06-19T09:39:19.857Z,27.88
2018-06-19T09:40:19.865Z,28.02
2018-06-19T09:41:19.872Z,28.04
2018-06-19T09:42:19.880Z,28.11
2018-06-19T09:43:19.886Z,28.24
2018-06-19T09:44:19.895Z,28.19
2018-06-19T09:45:19.902Z,28.37
2018-06-19T09:46:19.908Z,28.27
2018-06-19T09:47:19.917Z,28.14
2018-06-19T09:48:19.922Z,28.09
2018-06-19T09:49:19.929Z,28.06
2018-06-19T09:50:19.936Z,28.12
2018-06-19T09:51:19.943Z,28.18
2018-06-19T09:52:19.950Z,27.87
2018-06-19T09:53:19.956Z,27.81
2018-06-19T09:54:19.964Z,27.51
2018-06-19T09:55:19.971Z,27.54
2018-06-19T09:56:19.977Z,27.69
2018-06-19T09:57:19.986Z,27.92
2018-06-19T09:58:20.014Z,27.49
2018-06-19T09:59:20.050Z,27.02
2018-06-19T10:00:20.007Z,26.73
2018-06-19T10:01:20.012Z,26.80
2018-06-19T10:02:20.018Z,27.04
2018-06-19T10:03:20.025Z,27.02
2018-06-19T10:04:20.030Z,26.87
2018-06-19T10:05:20.037Z,27.09
2018-06-19T10:06:20.113Z,27.22
2018-06-19T10:07:20.059Z,27.49
2018-06-19T10:08:20.056Z,27.13
2018-06-19T10:09:20.062Z,27.27
2018-06-19T10:10:20.068Z,27.22
2018-06-19T10:11:20.076Z,27.32
2018-06-19T10:12:20.319Z,27.24
2018-06-19T10:13:20.090Z,27.34
2018-06-19T10:14:20.094Z,27.28
2018-06-19T10:15:20.101Z,27.22
2018-06-19T10:16:20.108Z,26.70
2018-06-19T10:17:20.112Z,26.58
2018-06-19T10:18:20.117Z,26.33
2018-06-19T10:19:20.124Z,26.48
2018-06-19T10:20:20.131Z,26.52
2018-06-19T10:21:20.143Z,26.33
2018-06-19T10:22:20.142Z,26.20
2018-06-19T10:23:20.149Z,26.44
2018-06-19T10:24:20.155Z,26.39
2018-06-19T10:25:20.164Z,25.85
2018-06-19T10:26:20.168Z,25.98
2018-06-19T10:27:20.174Z,26.18
2018-06-19T10:28:20.178Z,26.48
2018-06-19T10:29:20.186Z,26.58
2018-06-19T10:30:20.190Z,26.47
2018-06-19T10:31:20.200Z,26.66
2018-06-19T10:32:20.204Z,26.58
2018-06-19T10:33:20.212Z,26.45
2018-06-19T10:34:20.213Z,26.35
2018-06-19T10:35:20.219Z,26.45
2018-06-19T10:36:20.226Z,26.52
2018-06-19T10:37:20.233Z,26.58
2018-06-19T10:38:20.240Z,26.58
2018-06-19T10:39:20.247Z,26.54
2018-06-19T10:40:20.344Z,26.50
2018-06-19T10:41:20.252Z,26.48
2018-06-19T10:42:20.259Z,26.66
2018-06-19T10:43:20.264Z,26.94
2018-06-19T10:44:20.270Z,26.73
2018-06-19T10:45:20.276Z,26.99
2018-06-19T10:46:20.280Z,26.81
2018-06-19T10:47:20.287Z,26.97
2018-06-19T10:48:20.293Z,27.21
2018-06-19T10:49:20.297Z,27.04
2018-06-19T10:50:20.304Z,26.63
2018-06-19T10:51:20.309Z,26.81
2018-06-19T10:52:20.315Z,26.97
2018-06-19T10:53:20.319Z,26.95
2018-06-19T10:54:20.327Z,27.09
2018-06-19T10:55:20.332Z,27.19
2018-06-19T10:56:20.339Z,27.27
2018-06-19T10:57:20.346Z,27.24
2018-06-19T10:58:20.350Z,27.24
2018-06-19T10:59:20.359Z,27.60
2018-06-19T11:00:20.360Z,27.54
2018-06-19T11:01:20.366Z,27.57
2018-06-19T11:02:20.377Z,27.50
2018-06-19T11:03:20.381Z,27.55
2018-06-19T11:04:20.385Z,27.65
2018-06-19T11:05:20.392Z,27.62
2018-06-19T11:06:20.397Z,27.46
2018-06-19T11:07:20.500Z,27.24
2018-06-19T11:08:20.426Z,27.29
2018-06-19T11:09:20.416Z,27.07
2018-06-19T11:10:20.421Z,26.89
2018-06-19T11:11:20.429Z,27.06
2018-06-19T11:12:20.429Z,27.07
2018-06-19T11:13:20.439Z,27.06
2018-06-19T11:14:20.446Z,27.00
2018-06-19T11:15:20.452Z,26.85
2018-06-19T11:16:20.457Z,26.81
2018-06-19T11:17:20.465Z,26.91
2018-06-19T11:18:20.471Z,26.89
2018-06-19T11:19:20.477Z,26.89
2018-06-19T11:20:20.483Z,26.89
2018-06-19T11:21:20.500Z,27.02
2018-06-19T11:22:20.495Z,27.00
2018-06-19T11:23:20.499Z,27.07
2018-06-19T11:24:20.508Z,26.87
2018-06-19T11:25:20.515Z,26.65
2018-06-19T11:26:20.520Z,26.52
2018-06-19T11:27:20.521Z,26.50
2018-06-19T11:28:20.528Z,26.30
2018-06-19T11:29:20.540Z,26.26
2018-06-19T11:30:20.540Z,26.13
2018-06-19T11:31:20.548Z,25.95
2018-06-19T11:32:20.552Z,25.79
2018-06-19T11:33:20.557Z,25.64
2018-06-19T11:34:20.564Z,25.57
2018-06-19T11:35:20.570Z,25.52
2018-06-19T11:36:20.575Z,25.69
2018-06-19T11:37:20.581Z,25.70
2018-06-19T11:38:20.586Z,25.47
2018-06-19T11:39:20.593Z,25.39
2018-06-19T11:40:20.596Z,25.54
2018-06-19T11:41:20.603Z,25.32
2018-06-19T11:42:20.608Z,25.17
2018-06-19T11:43:20.620Z,25.30
2018-06-19T11:44:20.617Z,25.27
2018-06-19T11:45:20.624Z,25.33
2018-06-19T11:46:20.629Z,25.45
2018-06-19T11:47:20.633Z,25.50
2018-06-19T11:48:20.639Z,25.55
2018-06-19T11:49:20.641Z,25.55
2018-06-19T11:50:20.650Z,25.70
2018-06-19T11:51:20.656Z,25.57
2018-06-19T11:52:20.658Z,25.72
2018-06-19T11:53:20.670Z,25.73
2018-06-19T11:54:20.668Z,25.87
2018-06-19T11:55:20.674Z,26.10
2018-06-19T11:56:20.680Z,26.20
2018-06-19T11:57:20.684Z,26.23
2018-06-19T11:58:20.690Z,26.20
2018-06-19T11:59:20.695Z,26.26
2018-06-19T12:00:20.701Z,26.44
2018-06-19T12:01:20.707Z,26.51
2018-06-19T12:02:20.710Z,26.75
2018-06-19T12:03:20.715Z,26.67
2018-06-19T12:04:20.721Z,26.57
2018-06-19T12:05:20.725Z,26.80
2018-06-19T12:06:20.733Z,26.94
2018-06-19T12:07:20.738Z,27.04
2018-06-19T12:08:20.744Z,27.17
2018-06-19T12:09:20.747Z,27.18
2018-06-19T12:10:20.753Z,27.27
2018-06-19T12:11:20.760Z,27.24
2018-06-19T12:12:20.763Z,27.17
2018-06-19T12:13:20.770Z,26.97
2018-06-19T12:14:20.797Z,26.91
2018-06-19T12:15:20.780Z,26.97
2018-06-19T12:16:20.785Z,27.00
2018-06-19T12:17:20.791Z,27.13
2018-06-19T12:18:20.795Z,27.29
2018-06-19T12:19:20.800Z,27.34
2018-06-19T12:20:20.806Z,27.36
2018-06-19T12:21:20.819Z,27.34
2018-06-19T12:22:20.819Z,27.34
2018-06-19T12:23:20.824Z,27.39
2018-06-19T12:24:20.829Z,27.51
2018-06-19T12:25:20.839Z,27.57
2018-06-19T12:26:20.841Z,27.79
2018-06-19T12:27:20.850Z,27.39
2018-06-19T12:28:20.860Z,27.50
2018-06-19T12:29:20.856Z,27.37
2018-06-19T12:30:20.861Z,27.49
2018-06-19T12:31:20.874Z,27.41
2018-06-19T12:32:20.874Z,27.25
2018-06-19T12:33:20.877Z,27.46
2018-06-19T12:34:20.885Z,27.43
2018-06-19T12:35:20.891Z,27.41
2018-06-19T12:36:20.899Z,27.41
2018-06-19T12:37:20.941Z,27.29
2018-06-19T12:38:20.907Z,27.46
2018-06-19T12:39:20.914Z,27.36
2018-06-19T12:40:20.920Z,27.50
2018-06-19T12:41:20.924Z,27.51
2018-06-19T12:42:20.923Z,27.69
2018-06-19T12:43:20.936Z,27.55
2018-06-19T12:44:20.938Z,27.85
2018-06-19T12:45:20.949Z,28.03
2018-06-19T12:46:20.951Z,28.21
2018-06-19T12:47:20.958Z,27.92
2018-06-19T12:48:20.962Z,27.94
2018-06-19T12:49:20.968Z,28.21
2018-06-19T12:50:20.974Z,28.31
2018-06-19T12:51:20.981Z,28.24
2018-06-19T12:52:20.987Z,28.15